Time,TemperatureF,DewpointF,PressureIn,WindDirection,WindDirectionDegrees,WindSpeedMPH,WindSpeedGustMPH,Humidity,HourlyPrecipIn,Conditions,Clouds,dailyrainin,SoftwareType,DateUTC
2013-06-11 00:00:00,79.2,72.9,30.03,ENE,70,0.0,0.0,81,0.00,,---,0.00,VWS V13.01,2013-06-11 04:00:00,
2013-06-11 00:01:00,79.2,72.9,30.03,ENE,70,0.0,0.0,81,0.00,,---,0.00,VWS V13.01,2013-06-11 04:01:00,
2013-06-11 00:03:00,79.2,72.9,30.03,ENE,70,0.0,0.0,81,0.00,,---,0.00,VWS V13.01,2013-06-11 04:03:00,
2013-06-11 00:04:00,79.2,72.9,30.03,ENE,71,0.0,0.0,81,0.00,,---,0.00,VWS V13.01,2013-06-11 04:04:00,
2013-06-11 00:09:00,79.2,72.9,30.03,ENE,74,0.0,0.0,81,0.00,,---,0.00,VWS V13.01,2013-06-11 04:09:00,
2013-06-11 00:14:00,79.2,72.9,30.02,ENE,76,0.0,0.0,81,0.00,,---,0.00,VWS V13.01,2013-06-11 04:14:00,
2013-06-11 00:19:00,79.1,72.8,30.03,ENE,76,0.0,0.0,81,0.00,,---,0.00,VWS V13.01,2013-06-11 04:19:00,
2013-06-11 00:24:00,79.0,73.0,30.02,ENE,76,0.0,0.0,82,0.00,,---,0.00,VWS V13.01,2013-06-11 04:24:00,
2013-06-11 00:30:00,78.9,72.9,30.02,ENE,74,0.0,0.0,82,0.00,,---,0.00,VWS V13.01,2013-06-11 04:30:00,
2013-06-11 00:35:00,78.8,72.8,30.02,East,101,0.0,0.0,82,0.00,,---,0.00,VWS V13.01,2013-06-11 04:35:00,
2013-06-11 00:40:00,78.7,72.8,30.02,East,101,0.0,0.0,82,0.00,,---,0.00,VWS V13.01,2013-06-11 04:40:00,
2013-06-11 00:45:00,78.7,73.1,30.02,East,101,0.0,0.0,83,0.00,,---,0.00,VWS V13.01,2013-06-11 04:45:00,
2013-06-11 00:50:00,78.5,72.9,30.02,East,101,0.0,0.0,83,0.00,,---,0.00,VWS V13.01,2013-06-11 04:50:00,
2013-06-11 00:55:00,78.4,72.8,30.02,East,101,0.0,0.0,83,0.00,,---,0.00,VWS V13.01,2013-06-11 04:55:00,
2013-06-11 01:00:00,78.3,72.7,30.02,East,101,0.0,0.0,83,0.00,,---,0.00,VWS V13.01,2013-06-11 05:00:00,
2013-06-11 01:05:00,78.2,73.0,30.02,East,101,0.0,0.0,84,0.00,,---,0.00,VWS V13.01,2013-06-11 05:05:00,
2013-06-11 01:10:00,78.1,72.9,30.02,East,101,0.0,0.0,84,0.00,,---,0.00,VWS V13.01,2013-06-11 05:10:00,
2013-06-11 01:15:00,78.1,72.9,30.02,East,101,0.0,0.0,84,0.00,,---,0.00,VWS V13.01,2013-06-11 05:15:00,
2013-06-11 01:20:00,78.0,72.8,30.02,East,101,0.0,0.0,84,0.00,,---,0.00,VWS V13.01,2013-06-11 05:20:00,
2013-06-11 01:25:00,78.0,72.8,30.02,East,101,0.0,0.0,84,0.00,,---,0.00,VWS V13.01,2013-06-11 05:25:00,
2013-06-11 01:30:00,78.0,73.1,30.02,East,101,0.0,0.0,85,0.00,,---,0.00,VWS V13.01,2013-06-11 05:30:00,
2013-06-11 01:35:00,77.9,73.0,30.02,East,101,0.0,0.0,85,0.00,,---,0.00,VWS V13.01,2013-06-11 05:35:00,
2013-06-11 01:40:00,77.8,72.9,30.02,East,101,0.0,0.0,85,0.00,,---,0.00,VWS V13.01,2013-06-11 05:40:00,
2013-06-11 01:45:00,77.7,72.8,30.02,East,101,0.0,0.0,85,0.00,,---,0.00,VWS V13.01,2013-06-11 05:45:00,
2013-06-11 01:50:00,77.6,72.7,30.02,East,101,0.0,0.0,85,0.00,,---,0.00,VWS V13.01,2013-06-11 05:50:00,
2013-06-11 01:55:00,77.5,72.6,30.02,East,101,0.0,0.0,85,0.00,,---,0.00,VWS V13.01,2013-06-11 05:55:00,
2013-06-11 02:00:00,77.4,72.5,30.01,East,101,0.0,0.0,85,0.00,,---,0.00,VWS V13.01,2013-06-11 06:00:00,
2013-06-11 02:05:00,77.3,72.4,30.01,East,101,0.0,0.0,85,0.00,,---,0.00,VWS V13.01,2013-06-11 06:05:00,
2013-06-11 02:10:00,77.2,72.7,30.01,East,101,0.0,0.0,86,0.00,,---,0.00,VWS V13.01,2013-06-11 06:10:00,
2013-06-11 02:16:00,77.1,72.6,30.02,East,101,0.0,0.0,86,0.00,,---,0.00,VWS V13.01,2013-06-11 06:16:00,
2013-06-11 02:21:00,77.0,72.5,30.01,East,101,0.0,0.0,86,0.00,,---,0.00,VWS V13.01,2013-06-11 06:21:00,
2013-06-11 02:26:00,76.9,72.4,30.01,East,101,0.0,0.0,86,0.00,,---,0.00,VWS V13.01,2013-06-11 06:26:00,
2013-06-11 02:31:00,76.7,72.5,30.01,East,101,0.0,0.0,87,0.00,,---,0.00,VWS V13.01,2013-06-11 06:31:00,
2013-06-11 02:37:00,76.6,72.4,30.01,East,101,0.0,0.0,87,0.00,,---,0.00,VWS V13.01,2013-06-11 06:37:00,
2013-06-11 02:42:00,76.4,72.2,30.01,East,101,0.0,0.0,87,0.00,,---,0.00,VWS V13.01,2013-06-11 06:42:00,
2013-06-11 02:47:00,76.2,72.1,30.01,East,101,0.0,0.0,87,0.00,,---,0.00,VWS V13.01,2013-06-11 06:47:00,
2013-06-11 02:52:00,76.1,71.9,30.01,East,101,0.0,0.0,87,0.00,,---,0.00,VWS V13.01,2013-06-11 06:52:00,
2013-06-11 02:57:00,76.1,71.9,30.00,East,101,0.0,0.0,87,0.00,,---,0.00,VWS V13.01,2013-06-11 06:57:00,
2013-06-11 03:02:00,76.1,71.9,30.00,East,101,0.0,0.0,87,0.00,,---,0.00,VWS V13.01,2013-06-11 07:02:00,
2013-06-11 03:07:00,76.0,71.9,30.00,East,101,0.0,0.0,87,0.00,,---,0.00,VWS V13.01,2013-06-11 07:07:00,
2013-06-11 03:12:00,75.9,71.8,30.00,East,101,0.0,0.0,87,0.00,,---,0.00,VWS V13.01,2013-06-11 07:12:00,
2013-06-11 03:17:00,75.9,71.8,30.00,East,101,0.0,0.0,87,0.00,,---,0.00,VWS V13.01,2013-06-11 07:17:00,
2013-06-11 03:22:00,75.8,71.7,30.00,East,101,0.0,0.0,87,0.00,,---,0.00,VWS V13.01,2013-06-11 07:22:00,
2013-06-11 03:27:00,75.8,71.7,30.00,East,101,0.0,0.0,87,0.00,,---,0.00,VWS V13.01,2013-06-11 07:27:00,
2013-06-11 03:33:00,75.8,72.0,30.00,East,101,0.0,0.0,88,0.00,,---,0.00,VWS V13.01,2013-06-11 07:33:00,
2013-06-11 03:38:00,75.9,72.1,30.00,East,101,0.0,0.0,88,0.00,,---,0.00,VWS V13.01,2013-06-11 07:38:00,
2013-06-11 03:43:00,75.8,72.0,30.00,East,101,0.0,0.0,88,0.00,,---,0.00,VWS V13.01,2013-06-11 07:43:00,
2013-06-11 03:48:00,75.8,72.0,30.00,East,101,0.0,0.0,88,0.00,,---,0.00,VWS V13.01,2013-06-11 07:48:00,
2013-06-11 03:53:00,75.8,72.0,30.00,East,101,0.0,0.0,88,0.00,,---,0.00,VWS V13.01,2013-06-11 07:53:00,
2013-06-11 03:58:00,75.9,72.1,30.00,East,101,0.0,0.0,88,0.00,,---,0.00,VWS V13.01,2013-06-11 07:58:00,
2013-06-11 04:03:00,75.9,72.1,30.00,East,101,0.0,0.0,88,0.00,,---,0.00,VWS V13.01,2013-06-11 08:03:00,
2013-06-11 04:08:00,75.8,72.0,30.00,East,101,0.0,0.0,88,0.00,,---,0.00,VWS V13.01,2013-06-11 08:08:00,
2013-06-11 04:13:00,75.8,72.0,30.00,East,101,0.0,0.0,88,0.00,,---,0.00,VWS V13.01,2013-06-11 08:13:00,
2013-06-11 04:18:00,75.9,72.1,30.00,East,101,0.0,0.0,88,0.00,,---,0.00,VWS V13.01,2013-06-11 08:18:00,
2013-06-11 04:23:00,75.8,72.0,30.00,East,101,0.0,0.0,88,0.00,,---,0.00,VWS V13.01,2013-06-11 08:23:00,
2013-06-11 04:29:00,75.8,72.0,30.00,East,101,0.0,0.0,88,0.00,,---,0.00,VWS V13.01,2013-06-11 08:29:00,
2013-06-11 04:34:00,75.8,72.0,30.00,East,101,0.0,0.0,88,0.00,,---,0.00,VWS V13.01,2013-06-11 08:34:00,
2013-06-11 04:39:00,75.9,72.1,30.00,East,101,0.0,0.0,88,0.00,,---,0.00,VWS V13.01,2013-06-11 08:39:00,
2013-06-11 04:44:00,76.0,72.2,30.00,East,101,0.0,0.0,88,0.00,,---,0.00,VWS V13.01,2013-06-11 08:44:00,
2013-06-11 04:49:00,76.0,72.2,30.00,East,101,0.0,0.0,88,0.00,,---,0.00,VWS V13.01,2013-06-11 08:49:00,
2013-06-11 04:54:00,76.1,72.3,30.00,East,101,0.0,0.0,88,0.00,,---,0.00,VWS V13.01,2013-06-11 08:54:00,
2013-06-11 04:59:00,76.1,72.3,30.00,East,101,0.0,0.0,88,0.00,,---,0.00,VWS V13.01,2013-06-11 08:59:00,
2013-06-11 05:04:00,76.0,72.2,30.01,East,101,0.0,0.0,88,0.00,,---,0.00,VWS V13.01,2013-06-11 09:04:00,
2013-06-11 05:09:00,76.1,72.3,30.01,East,101,0.0,0.0,88,0.00,,---,0.00,VWS V13.01,2013-06-11 09:09:00,
2013-06-11 05:14:00,76.2,72.4,30.01,East,101,0.0,0.0,88,0.00,,---,0.00,VWS V13.01,2013-06-11 09:14:00,
2013-06-11 05:19:00,76.3,72.5,30.01,East,101,0.0,0.0,88,0.00,,---,0.00,VWS V13.01,2013-06-11 09:19:00,
2013-06-11 05:24:00,76.4,72.6,30.01,East,101,0.0,0.0,88,0.00,,---,0.00,VWS V13.01,2013-06-11 09:24:00,
2013-06-11 05:29:00,76.4,72.6,30.01,East,101,0.0,0.0,88,0.00,,---,0.00,VWS V13.01,2013-06-11 09:29:00,
2013-06-11 05:35:00,76.6,72.8,30.01,East,101,0.0,0.0,88,0.00,,---,0.00,VWS V13.01,2013-06-11 09:35:00,
2013-06-11 05:40:00,76.6,72.8,30.01,East,101,0.0,0.0,88,0.00,,---,0.00,VWS V13.01,2013-06-11 09:40:00,
2013-06-11 05:45:00,76.7,72.9,30.00,East,101,0.0,0.0,88,0.00,,---,0.00,VWS V13.01,2013-06-11 09:45:00,
2013-06-11 05:50:00,76.7,72.9,30.00,East,101,0.0,0.0,88,0.00,,---,0.00,VWS V13.01,2013-06-11 09:50:00,
2013-06-11 05:55:00,76.8,73.0,30.01,East,101,0.0,0.0,88,0.00,,---,0.00,VWS V13.01,2013-06-11 09:55:00,
2013-06-11 06:00:00,76.9,73.1,30.01,East,101,0.0,0.0,88,0.00,,---,0.00,VWS V13.01,2013-06-11 10:00:00,
2013-06-11 06:05:00,77.0,73.2,30.01,East,101,0.0,0.0,88,0.00,,---,0.00,VWS V13.01,2013-06-11 10:05:00,
2013-06-11 06:10:00,77.0,73.2,30.01,East,101,0.0,0.0,88,0.00,,---,0.00,VWS V13.01,2013-06-11 10:10:00,
2013-06-11 06:15:00,77.0,73.2,30.01,East,101,0.0,0.0,88,0.00,,---,0.00,VWS V13.01,2013-06-11 10:15:00,
2013-06-11 06:20:00,77.1,73.3,30.01,East,101,0.0,0.0,88,0.00,,---,0.00,VWS V13.01,2013-06-11 10:20:00,
2013-06-11 06:25:00,77.1,73.3,30.01,East,101,0.0,0.0,88,0.00,,---,0.00,VWS V13.01,2013-06-11 10:25:00,
2013-06-11 06:31:00,77.1,73.3,30.01,East,101,0.0,0.0,88,0.00,,---,0.00,VWS V13.01,2013-06-11 10:31:00,
2013-06-11 06:36:00,77.2,73.4,30.01,East,101,0.0,0.0,88,0.00,,---,0.00,VWS V13.01,2013-06-11 10:36:00,
2013-06-11 06:41:00,77.2,73.4,30.02,East,101,0.0,0.0,88,0.00,,---,0.00,VWS V13.01,2013-06-11 10:41:00,
2013-06-11 06:46:00,77.2,73.4,30.02,East,101,0.0,0.0,88,0.00,,---,0.00,VWS V13.01,2013-06-11 10:46:00,
2013-06-11 06:51:00,77.3,73.5,30.02,East,101,0.0,0.0,88,0.00,,---,0.00,VWS V13.01,2013-06-11 10:51:00,
2013-06-11 06:56:00,77.3,73.5,30.02,East,101,0.0,0.0,88,0.00,,---,0.00,VWS V13.01,2013-06-11 10:56:00,
2013-06-11 07:01:00,77.3,73.5,30.02,East,101,0.0,0.0,88,0.00,,---,0.00,VWS V13.01,2013-06-11 11:01:00,
2013-06-11 07:06:00,77.3,73.5,30.02,East,101,0.0,0.0,88,0.00,,---,0.00,VWS V13.01,2013-06-11 11:06:00,
2013-06-11 07:12:00,77.4,73.6,30.02,East,101,0.0,0.0,88,0.00,,---,0.00,VWS V13.01,2013-06-11 11:12:00,
2013-06-11 07:17:00,77.5,73.7,30.02,East,101,0.0,0.0,88,0.00,,---,0.00,VWS V13.01,2013-06-11 11:17:00,
2013-06-11 07:22:00,77.6,73.8,30.02,East,101,0.0,0.0,88,0.00,,---,0.00,VWS V13.01,2013-06-11 11:22:00,
2013-06-11 07:27:00,77.8,74.0,30.02,East,101,0.0,0.0,88,0.00,,---,0.00,VWS V13.01,2013-06-11 11:27:00,
2013-06-11 07:32:00,77.9,74.1,30.02,East,101,0.0,0.0,88,0.00,,---,0.00,VWS V13.01,2013-06-11 11:32:00,
2013-06-11 07:37:00,78.1,74.3,30.02,ESE,103,0.0,0.0,88,0.00,,---,0.00,VWS V13.01,2013-06-11 11:37:00,
2013-06-11 07:42:00,78.2,74.4,30.02,ESE,103,0.0,0.0,88,0.00,,---,0.00,VWS V13.01,2013-06-11 11:42:00,
2013-06-11 07:47:00,78.3,74.1,30.02,ESE,104,0.0,0.0,87,0.00,,---,0.00,VWS V13.01,2013-06-11 11:47:00,
2013-06-11 07:52:00,78.5,74.3,30.02,ESE,106,0.0,0.0,87,0.00,,---,0.00,VWS V13.01,2013-06-11 11:52:00,
2013-06-11 07:58:00,78.7,74.5,30.02,SE,140,0.0,0.0,87,0.00,,---,0.00,VWS V13.01,2013-06-11 11:58:00,
2013-06-11 08:03:00,79.0,74.8,30.02,SE,142,0.0,0.0,87,0.00,,---,0.00,VWS V13.01,2013-06-11 12:03:00,
2013-06-11 08:08:00,79.2,75.0,30.02,SE,142,0.0,0.0,87,0.00,,---,0.00,VWS V13.01,2013-06-11 12:08:00,
2013-06-11 08:13:00,79.5,74.9,30.03,SE,142,0.0,0.0,86,0.00,,---,0.00,VWS V13.01,2013-06-11 12:13:00,
2013-06-11 08:18:00,79.9,75.3,30.03,SE,142,0.0,0.0,86,0.00,,---,0.00,VWS V13.01,2013-06-11 12:18:00,
2013-06-11 08:23:00,80.3,75.7,30.03,SE,143,0.0,0.0,86,0.00,,---,0.00,VWS V13.01,2013-06-11 12:23:00,
2013-06-11 08:28:00,80.6,75.7,30.03,SE,144,0.0,0.0,85,0.00,,---,0.00,VWS V13.01,2013-06-11 12:28:00,
2013-06-11 08:33:00,81.0,75.7,30.03,SE,144,0.0,0.0,84,0.00,,---,0.00,VWS V13.01,2013-06-11 12:33:00,
2013-06-11 08:38:00,81.5,76.2,30.04,SSE,163,0.0,0.0,84,0.00,,---,0.00,VWS V13.01,2013-06-11 12:38:00,
2013-06-11 08:43:00,82.0,76.7,30.04,SSE,163,0.0,0.0,84,0.00,,---,0.00,VWS V13.01,2013-06-11 12:43:00,
2013-06-11 08:48:00,82.6,76.9,30.04,SSE,151,0.0,0.0,83,0.00,,---,0.00,VWS V13.01,2013-06-11 12:48:00,
2013-06-11 08:53:00,83.0,76.6,30.04,SSE,161,0.0,0.0,81,0.00,,---,0.00,VWS V13.01,2013-06-11 12:53:00,
2013-06-11 08:59:00,83.2,76.8,30.04,SSE,155,0.0,0.0,81,0.00,,---,0.00,VWS V13.01,2013-06-11 12:59:00,
2013-06-11 09:04:00,83.3,76.5,30.04,South,171,0.0,0.0,80,0.00,,---,0.00,VWS V13.01,2013-06-11 13:04:00,
2013-06-11 09:09:00,83.2,76.4,30.04,SSE,165,0.0,0.0,80,0.00,,---,0.00,VWS V13.01,2013-06-11 13:09:00,
2013-06-11 09:14:00,83.5,76.7,30.04,SSE,165,0.0,0.0,80,0.00,,---,0.00,VWS V13.01,2013-06-11 13:14:00,
2013-06-11 09:19:00,83.6,76.4,30.04,SSE,164,0.0,0.0,79,0.00,,---,0.00,VWS V13.01,2013-06-11 13:19:00,
2013-06-11 09:24:00,83.8,76.6,30.04,SSE,157,0.0,0.0,79,0.00,,---,0.00,VWS V13.01,2013-06-11 13:24:00,
2013-06-11 09:29:00,84.2,76.6,30.04,SSE,154,0.0,0.0,78,0.00,,---,0.00,VWS V13.01,2013-06-11 13:29:00,
2013-06-11 09:34:00,84.4,76.0,30.04,SE,141,0.0,0.0,76,0.00,,---,0.00,VWS V13.01,2013-06-11 13:34:00,
2013-06-11 09:39:00,84.5,75.7,30.04,SSE,157,0.0,0.0,75,0.00,,---,0.00,VWS V13.01,2013-06-11 13:39:00,
2013-06-11 09:44:00,84.7,76.3,30.04,SSE,150,0.0,0.0,76,0.00,,---,0.00,VWS V13.01,2013-06-11 13:44:00,
2013-06-11 09:49:00,84.9,75.3,30.04,SE,135,0.0,0.0,73,0.00,,---,0.00,VWS V13.01,2013-06-11 13:49:00,
2013-06-11 09:54:00,85.4,75.3,30.04,South,173,0.0,0.0,72,0.00,,---,0.00,VWS V13.01,2013-06-11 13:54:00,
2013-06-11 09:59:00,85.9,75.4,30.04,SSE,160,0.0,0.0,71,0.00,,---,0.00,VWS V13.01,2013-06-11 13:59:00,
2013-06-11 10:04:00,86.0,74.7,30.04,SSE,154,0.0,0.0,69,0.00,,---,0.00,VWS V13.01,2013-06-11 14:04:00,
2013-06-11 10:10:00,86.3,75.8,30.04,SSE,156,0.0,0.0,71,0.00,,---,0.00,VWS V13.01,2013-06-11 14:10:00,
2013-06-11 10:15:00,86.5,76.0,30.04,SE,145,0.0,0.0,71,0.00,,---,0.00,VWS V13.01,2013-06-11 14:15:00,
2013-06-11 10:20:00,86.6,76.5,30.04,SSE,150,0.0,0.0,72,0.00,,---,0.00,VWS V13.01,2013-06-11 14:20:00,
2013-06-11 10:25:00,86.7,77.0,30.04,South,176,0.0,0.0,73,0.00,,---,0.00,VWS V13.01,2013-06-11 14:25:00,
2013-06-11 10:30:00,86.8,77.1,30.04,South,174,0.0,0.0,73,0.00,,---,0.00,VWS V13.01,2013-06-11 14:30:00,
2013-06-11 10:35:00,86.9,76.8,30.04,South,174,0.0,0.0,72,0.00,,---,0.00,VWS V13.01,2013-06-11 14:35:00,
2013-06-11 10:40:00,87.1,77.4,30.03,South,174,0.0,0.0,73,0.00,,---,0.00,VWS V13.01,2013-06-11 14:40:00,
2013-06-11 10:45:00,87.0,77.7,30.03,South,175,0.0,0.0,74,0.00,,---,0.00,VWS V13.01,2013-06-11 14:45:00,
2013-06-11 10:50:00,86.9,77.2,30.04,South,175,0.0,0.0,73,0.00,,---,0.00,VWS V13.01,2013-06-11 14:50:00,
2013-06-11 10:55:00,87.0,77.3,30.03,South,175,0.0,0.0,73,0.00,,---,0.00,VWS V13.01,2013-06-11 14:55:00,
2013-06-11 11:01:00,87.2,77.5,30.03,South,175,0.0,0.0,73,0.00,,---,0.00,VWS V13.01,2013-06-11 15:01:00,
2013-06-11 11:06:00,87.2,77.1,30.04,South,180,0.0,0.0,72,0.00,,---,0.00,VWS V13.01,2013-06-11 15:06:00,
2013-06-11 11:11:00,86.8,77.1,30.04,South,186,0.0,0.0,73,0.00,,---,0.00,VWS V13.01,2013-06-11 15:11:00,
2013-06-11 11:16:00,87.2,77.1,30.04,SSE,167,0.0,0.0,72,0.00,,---,0.00,VWS V13.01,2013-06-11 15:16:00,
2013-06-11 11:21:00,87.4,77.7,30.04,South,170,0.0,0.0,73,0.00,,---,0.00,VWS V13.01,2013-06-11 15:21:00,
2013-06-11 11:26:00,87.3,77.6,30.04,South,171,0.0,0.0,73,0.00,,---,0.00,VWS V13.01,2013-06-11 15:26:00,
2013-06-11 11:31:00,87.7,78.0,30.04,SSE,165,0.0,0.0,73,0.00,,---,0.00,VWS V13.01,2013-06-11 15:31:00,
2013-06-11 11:36:00,87.9,77.8,30.04,SSE,165,0.0,0.0,72,0.00,,---,0.00,VWS V13.01,2013-06-11 15:36:00,
2013-06-11 11:41:00,87.8,77.7,30.04,SW,234,0.0,0.0,72,0.00,,---,0.00,VWS V13.01,2013-06-11 15:41:00,
2013-06-11 11:46:00,87.9,77.3,30.04,SSW,204,0.0,0.0,71,0.00,,---,0.00,VWS V13.01,2013-06-11 15:46:00,
2013-06-11 11:51:00,88.0,77.0,30.04,West,261,0.0,0.0,70,0.00,,---,0.00,VWS V13.01,2013-06-11 15:51:00,
2013-06-11 11:56:00,87.8,77.2,30.04,WSW,238,0.0,0.0,71,0.00,,---,0.00,VWS V13.01,2013-06-11 15:56:00,
2013-06-11 12:01:00,87.7,78.0,30.04,West,267,0.0,0.0,73,0.00,,---,0.00,VWS V13.01,2013-06-11 16:01:00,
2013-06-11 12:06:00,87.1,76.6,30.05,WNW,294,0.0,4.0,71,0.00,,---,0.00,VWS V13.01,2013-06-11 16:06:00,
2013-06-11 12:11:00,87.0,78.1,30.05,WNW,294,0.0,4.0,75,0.00,,---,0.00,VWS V13.01,2013-06-11 16:11:00,
2013-06-11 12:16:00,87.2,78.3,30.04,WNW,288,0.0,4.0,75,0.00,,---,0.00,VWS V13.01,2013-06-11 16:16:00,
2013-06-11 12:22:00,87.5,78.6,30.04,WNW,303,0.0,4.0,75,0.00,,---,0.00,VWS V13.01,2013-06-11 16:22:00,
2013-06-11 12:27:00,87.8,78.5,30.04,SSW,196,0.0,4.0,74,0.00,,---,0.00,VWS V13.01,2013-06-11 16:27:00,
2013-06-11 12:32:00,87.7,78.4,30.05,SSW,196,0.0,0.0,74,0.00,,---,0.00,VWS V13.01,2013-06-11 16:32:00,
2013-06-11 12:37:00,87.5,77.8,30.06,South,184,0.0,1.0,73,0.00,,---,0.00,VWS V13.01,2013-06-11 16:37:00,
2013-06-11 12:42:00,87.1,77.0,30.06,ENE,67,0.0,5.0,72,0.00,,---,0.00,VWS V13.01,2013-06-11 16:42:00,
2013-06-11 12:47:00,85.9,75.0,30.06,East,80,3.0,5.0,70,0.00,,---,0.00,VWS V13.01,2013-06-11 16:47:00,
2013-06-11 12:52:00,84.0,74.4,30.06,NE,50,0.0,10.0,73,0.00,,---,0.00,VWS V13.01,2013-06-11 16:52:00,
2013-06-11 12:57:00,82.7,73.6,30.06,NNE,14,0.0,10.0,74,0.00,,---,0.00,VWS V13.01,2013-06-11 16:57:00,
2013-06-11 13:02:00,81.7,72.2,30.06,NE,40,0.0,0.0,73,0.00,,---,0.00,VWS V13.01,2013-06-11 17:02:00,
2013-06-11 13:07:00,81.3,71.8,30.06,North,350,0.0,1.0,73,0.00,,---,0.00,VWS V13.01,2013-06-11 17:07:00,
2013-06-11 13:12:00,82.3,73.2,30.05,East,86,0.0,1.0,74,0.00,,---,0.00,VWS V13.01,2013-06-11 17:12:00,
2013-06-11 13:17:00,84.0,72.7,30.04,SE,138,0.0,6.0,69,0.00,,---,0.00,VWS V13.01,2013-06-11 17:17:00,
2013-06-11 13:22:00,84.9,74.0,30.04,NE,53,3.0,6.0,70,0.00,,---,0.00,VWS V13.01,2013-06-11 17:22:00,
2013-06-11 13:28:00,86.0,75.1,30.04,North,5,0.0,6.0,70,0.00,,---,0.00,VWS V13.01,2013-06-11 17:28:00,
2013-06-11 13:33:00,87.1,75.3,30.03,East,90,0.0,0.0,68,0.00,,---,0.00,VWS V13.01,2013-06-11 17:33:00,
2013-06-11 13:38:00,88.1,76.2,30.04,North,355,0.0,0.0,68,0.00,,---,0.00,VWS V13.01,2013-06-11 17:38:00,
2013-06-11 13:43:00,88.8,77.3,30.04,North,9,0.0,4.0,69,0.00,,---,0.00,VWS V13.01,2013-06-11 17:43:00,
2013-06-11 13:48:00,88.3,76.8,30.03,NNE,13,0.0,5.0,69,0.00,,---,0.00,VWS V13.01,2013-06-11 17:48:00,
2013-06-11 13:53:00,88.4,77.8,30.03,NE,41,1.0,6.0,71,0.00,,---,0.00,VWS V13.01,2013-06-11 17:53:00,
2013-06-11 13:58:00,88.1,75.3,30.04,NNW,329,0.0,7.0,66,0.00,,---,0.00,VWS V13.01,2013-06-11 17:58:00,
2013-06-11 14:03:00,87.4,75.1,30.03,West,275,0.0,0.0,67,0.00,,---,0.00,VWS V13.01,2013-06-11 18:03:00,
2013-06-11 14:08:00,87.9,75.6,30.03,West,277,0.0,0.0,67,0.00,,---,0.00,VWS V13.01,2013-06-11 18:08:00,
2013-06-11 14:13:00,88.2,75.4,30.02,West,277,0.0,1.0,66,0.00,,---,0.00,VWS V13.01,2013-06-11 18:13:00,
2013-06-11 14:18:00,89.0,76.6,30.02,WNW,283,0.0,1.0,67,0.00,,---,0.00,VWS V13.01,2013-06-11 18:18:00,
2013-06-11 14:23:00,89.6,77.6,30.02,NW,311,0.0,1.0,68,0.00,,---,0.00,VWS V13.01,2013-06-11 18:23:00,
2013-06-11 14:28:00,89.5,76.7,30.02,WNW,288,0.0,1.0,66,0.00,,---,0.00,VWS V13.01,2013-06-11 18:28:00,
2013-06-11 14:34:00,88.8,76.9,30.03,North,351,2.0,9.0,68,0.00,,---,0.00,VWS V13.01,2013-06-11 18:34:00,
2013-06-11 14:39:00,88.8,77.8,30.03,North,5,0.0,9.0,70,0.00,,---,0.00,VWS V13.01,2013-06-11 18:39:00,
2013-06-11 14:44:00,88.7,77.7,30.03,WNW,298,0.0,9.0,70,0.00,,---,0.00,VWS V13.01,2013-06-11 18:44:00,
2013-06-11 14:49:00,88.9,77.8,30.03,NNW,337,0.0,9.0,70,0.00,,---,0.00,VWS V13.01,2013-06-11 18:49:00,
2013-06-11 14:54:00,88.6,77.6,30.02,West,273,0.0,9.0,70,0.00,,---,0.00,VWS V13.01,2013-06-11 18:54:00,
2013-06-11 14:59:00,88.6,77.6,30.02,NNW,327,0.0,9.0,70,0.00,,---,0.00,VWS V13.01,2013-06-11 18:59:00,
2013-06-11 15:04:00,88.9,77.8,30.02,WNW,290,0.0,5.0,70,0.00,,---,0.00,VWS V13.01,2013-06-11 19:04:00,
2013-06-11 15:09:00,89.0,77.9,30.02,West,281,0.0,5.0,70,0.00,,---,0.00,VWS V13.01,2013-06-11 19:09:00,
2013-06-11 15:14:00,89.0,77.9,30.01,NW,326,0.0,6.0,70,0.00,,---,0.00,VWS V13.01,2013-06-11 19:14:00,
2013-06-11 15:19:00,89.0,78.8,30.01,NNW,331,0.0,6.0,72,0.00,,---,0.00,VWS V13.01,2013-06-11 19:19:00,
2013-06-11 15:24:00,89.5,79.3,30.01,West,265,7.0,7.0,72,0.00,,---,0.00,VWS V13.01,2013-06-11 19:24:00,
2013-06-11 15:30:00,89.4,78.8,30.01,West,262,0.0,7.0,71,0.00,,---,0.00,VWS V13.01,2013-06-11 19:30:00,
2013-06-11 15:35:00,89.2,79.0,30.01,West,273,0.0,7.0,72,0.00,,---,0.00,VWS V13.01,2013-06-11 19:35:00,
2013-06-11 15:40:00,88.7,78.5,30.01,West,271,0.0,7.0,72,0.00,,---,0.00,VWS V13.01,2013-06-11 19:40:00,
2013-06-11 15:45:00,88.2,78.0,30.00,NNW,335,3.0,7.0,72,0.00,,---,0.00,VWS V13.01,2013-06-11 19:45:00,
2013-06-11 15:50:00,88.4,78.2,30.00,West,271,2.0,9.0,72,0.00,,---,0.00,VWS V13.01,2013-06-11 19:50:00,
2013-06-11 15:55:00,88.2,78.4,30.00,West,267,0.0,9.0,73,0.00,,---,0.00,VWS V13.01,2013-06-11 19:55:00,
2013-06-11 16:00:00,88.6,78.4,30.00,West,275,0.0,9.0,72,0.00,,---,0.00,VWS V13.01,2013-06-11 20:00:00,
2013-06-11 16:05:00,88.8,78.2,30.00,NW,319,0.0,1.0,71,0.00,,---,0.00,VWS V13.01,2013-06-11 20:05:00,
2013-06-11 16:10:00,88.7,77.7,30.00,WSW,242,0.0,1.0,70,0.00,,---,0.00,VWS V13.01,2013-06-11 20:10:00,
2013-06-11 16:15:00,89.0,77.9,30.00,West,273,2.0,6.0,70,0.00,,---,0.00,VWS V13.01,2013-06-11 20:15:00,
2013-06-11 16:20:00,88.9,78.3,30.00,West,266,0.0,6.0,71,0.00,,---,0.00,VWS V13.01,2013-06-11 20:20:00,
2013-06-11 16:25:00,89.0,77.9,29.99,North,360,0.0,6.0,70,0.00,,---,0.00,VWS V13.01,2013-06-11 20:25:00,
2013-06-11 16:30:00,89.7,78.2,29.99,North,360,0.0,0.0,69,0.00,,---,0.00,VWS V13.01,2013-06-11 20:30:00,
2013-06-11 16:35:00,89.8,78.7,29.99,North,360,0.0,2.0,70,0.00,,---,0.00,VWS V13.01,2013-06-11 20:35:00,
2013-06-11 16:41:00,90.3,77.9,29.99,NNE,19,0.0,5.0,67,0.00,,---,0.00,VWS V13.01,2013-06-11 20:41:00,
2013-06-11 16:46:00,90.0,78.0,29.98,WNW,297,0.0,5.0,68,0.00,,---,0.00,VWS V13.01,2013-06-11 20:46:00,
2013-06-11 16:50:00,89.5,78.0,29.98,NNE,21,0.0,5.0,69,0.00,,---,0.00,VWS V13.01,2013-06-11 20:50:00,
2013-06-11 16:56:00,89.3,77.8,29.98,West,279,0.0,5.0,69,0.00,,---,0.00,VWS V13.01,2013-06-11 20:56:00,
2013-06-11 17:01:00,89.5,78.4,29.98,NNE,19,4.0,5.0,70,0.00,,---,0.00,VWS V13.01,2013-06-11 21:01:00,
2013-06-11 17:06:00,89.9,78.4,29.99,NNW,329,0.0,5.0,69,0.00,,---,0.00,VWS V13.01,2013-06-11 21:06:00,
2013-06-11 17:11:00,90.4,77.9,29.99,NNE,18,0.0,5.0,67,0.00,,---,0.00,VWS V13.01,2013-06-11 21:11:00,
2013-06-11 17:16:00,90.5,78.9,29.98,WNW,292,0.0,5.0,69,0.00,,---,0.00,VWS V13.01,2013-06-11 21:16:00,
2013-06-11 17:22:00,90.2,78.2,29.98,NNW,346,0.0,5.0,68,0.00,,---,0.00,VWS V13.01,2013-06-11 21:22:00,
2013-06-11 17:26:00,89.6,77.6,29.98,NW,321,0.0,5.0,68,0.00,,---,0.00,VWS V13.01,2013-06-11 21:26:00,
2013-06-11 17:32:00,89.1,77.6,29.99,NW,318,0.0,0.0,69,0.00,,---,0.00,VWS V13.01,2013-06-11 21:32:00,
2013-06-11 17:37:00,88.2,77.6,29.98,West,279,0.0,4.0,71,0.00,,---,0.00,VWS V13.01,2013-06-11 21:37:00,
2013-06-11 17:42:00,87.7,77.6,29.99,NW,320,0.0,4.0,72,0.00,,---,0.00,VWS V13.01,2013-06-11 21:42:00,
2013-06-11 17:47:00,87.6,77.9,29.99,North,9,0.0,6.0,73,0.00,,---,0.00,VWS V13.01,2013-06-11 21:47:00,
2013-06-11 17:52:00,87.5,77.4,29.99,NNW,336,0.0,6.0,72,0.00,,---,0.00,VWS V13.01,2013-06-11 21:52:00,
2013-06-11 17:57:00,87.4,77.7,29.99,NW,325,0.0,6.0,73,0.00,,---,0.00,VWS V13.01,2013-06-11 21:57:00,
2013-06-11 18:02:00,87.7,78.0,29.98,NNW,331,0.0,4.0,73,0.00,,---,0.00,VWS V13.01,2013-06-11 22:02:00,
2013-06-11 18:07:00,88.0,78.3,29.99,WNW,288,0.0,7.0,73,0.00,,---,0.00,VWS V13.01,2013-06-11 22:07:00,
2013-06-11 18:12:00,88.3,78.1,29.99,North,355,0.0,7.0,72,0.00,,---,0.00,VWS V13.01,2013-06-11 22:12:00,
2013-06-11 18:17:00,88.0,77.8,29.99,NW,306,0.0,7.0,72,0.00,,---,0.00,VWS V13.01,2013-06-11 22:17:00,
2013-06-11 18:22:00,87.5,77.8,29.99,NW,323,0.0,7.0,73,0.00,,---,0.00,VWS V13.01,2013-06-11 22:22:00,
2013-06-11 18:28:00,87.3,77.6,29.99,NW,325,0.0,7.0,73,0.00,,---,0.00,VWS V13.01,2013-06-11 22:28:00,
2013-06-11 18:33:00,87.2,77.9,29.99,NNW,328,0.0,0.0,74,0.00,,---,0.00,VWS V13.01,2013-06-11 22:33:00,
2013-06-11 18:38:00,87.2,77.9,30.00,NNW,344,0.0,0.0,74,0.00,,---,0.00,VWS V13.01,2013-06-11 22:38:00,
2013-06-11 18:43:00,86.5,77.6,30.00,NW,324,0.0,3.0,75,0.00,,---,0.00,VWS V13.01,2013-06-11 22:43:00,
2013-06-11 18:48:00,86.3,77.8,30.00,NNE,13,0.0,3.0,76,0.00,,---,0.00,VWS V13.01,2013-06-11 22:48:00,
2013-06-11 18:53:00,86.2,77.8,30.00,North,11,0.0,3.0,76,0.00,,---,0.00,VWS V13.01,2013-06-11 22:53:00,
2013-06-11 18:58:00,85.9,77.5,30.00,NNE,17,0.0,7.0,76,0.00,,---,0.00,VWS V13.01,2013-06-11 22:58:00,
2013-06-11 19:03:00,85.8,77.8,30.00,NNE,15,0.0,0.0,77,0.00,,---,0.00,VWS V13.01,2013-06-11 23:03:00,
2013-06-11 19:08:00,85.4,77.4,30.00,North,5,0.0,0.0,77,0.00,,---,0.00,VWS V13.01,2013-06-11 23:08:00,
2013-06-11 19:13:00,85.4,78.2,30.00,North,5,0.0,0.0,79,0.00,,---,0.00,VWS V13.01,2013-06-11 23:13:00,
2013-06-11 19:18:00,85.1,76.7,30.00,NE,49,0.0,0.0,76,0.00,,---,0.00,VWS V13.01,2013-06-11 23:18:00,
2013-06-11 19:23:00,84.5,76.1,30.00,East,82,0.0,0.0,76,0.01,,---,0.01,VWS V13.01,2013-06-11 23:23:00,
2013-06-11 19:28:00,83.7,75.7,30.00,ENE,72,0.0,0.0,77,0.01,,---,0.01,VWS V13.01,2013-06-11 23:28:00,
2013-06-11 19:34:00,83.0,75.4,30.00,ENE,73,0.0,0.0,78,0.01,,---,0.01,VWS V13.01,2013-06-11 23:34:00,
2013-06-11 19:39:00,82.5,75.3,30.00,ENE,75,0.0,0.0,79,0.01,,---,0.01,VWS V13.01,2013-06-11 23:39:00,
2013-06-11 19:44:00,81.8,75.8,29.99,ENE,75,0.0,0.0,82,0.01,,---,0.01,VWS V13.01,2013-06-11 23:44:00,
2013-06-11 19:49:00,81.2,75.6,29.99,ENE,75,0.0,0.0,83,0.01,,---,0.01,VWS V13.01,2013-06-11 23:49:00,
2013-06-11 19:54:00,80.8,75.2,29.99,ENE,75,0.0,0.0,83,0.01,,---,0.01,VWS V13.01,2013-06-11 23:54:00,
2013-06-11 19:59:00,80.5,75.2,29.99,ENE,75,0.0,0.0,84,0.01,,---,0.01,VWS V13.01,2013-06-11 23:59:00,
2013-06-11 20:04:00,80.3,74.7,29.99,ENE,75,0.0,0.0,83,0.01,,---,0.01,VWS V13.01,2013-06-12 00:04:00,
2013-06-11 20:09:00,80.2,74.9,29.99,ENE,75,0.0,0.0,84,0.01,,---,0.01,VWS V13.01,2013-06-12 00:09:00,
2013-06-11 20:14:00,80.1,74.8,29.99,ENE,75,0.0,0.0,84,0.01,,---,0.01,VWS V13.01,2013-06-12 00:14:00,
2013-06-11 20:19:00,80.0,74.7,29.99,ENE,75,0.0,0.0,84,0.01,,---,0.01,VWS V13.01,2013-06-12 00:19:00,
2013-06-11 20:24:00,79.9,75.0,29.99,ENE,75,0.0,0.0,85,0.01,,---,0.01,VWS V13.01,2013-06-12 00:24:00,
2013-06-11 20:29:00,79.7,74.8,29.99,ENE,75,0.0,0.0,85,0.01,,---,0.01,VWS V13.01,2013-06-12 00:29:00,
2013-06-11 20:34:00,79.7,74.8,29.99,ENE,75,0.0,0.0,85,0.00,,---,0.01,VWS V13.01,2013-06-12 00:34:00,
2013-06-11 20:40:00,79.6,74.7,29.99,ENE,75,0.0,0.0,85,0.00,,---,0.01,VWS V13.01,2013-06-12 00:40:00,
2013-06-11 20:45:00,79.7,75.2,29.99,ENE,75,0.0,0.0,86,0.00,,---,0.01,VWS V13.01,2013-06-12 00:45:00,
2013-06-11 20:50:00,79.8,75.2,29.99,ENE,75,0.0,0.0,86,0.00,,---,0.01,VWS V13.01,2013-06-12 00:50:00,
2013-06-11 20:55:00,79.7,75.2,29.98,ENE,75,0.0,0.0,86,0.00,,---,0.01,VWS V13.01,2013-06-12 00:55:00,
2013-06-11 21:00:00,79.6,75.1,29.98,ENE,75,0.0,0.0,86,0.00,,---,0.01,VWS V13.01,2013-06-12 01:00:00,
2013-06-11 21:05:00,79.4,74.8,29.98,ENE,75,0.0,0.0,86,0.00,,---,0.01,VWS V13.01,2013-06-12 01:05:00,
2013-06-11 21:10:00,79.3,74.8,29.98,ENE,75,0.0,0.0,86,0.00,,---,0.01,VWS V13.01,2013-06-12 01:10:00,
2013-06-11 21:15:00,79.1,74.6,29.98,ENE,75,0.0,0.0,86,0.00,,---,0.01,VWS V13.01,2013-06-12 01:15:00,
2013-06-11 21:20:00,79.0,74.5,29.98,ENE,75,0.0,0.0,86,0.00,,---,0.01,VWS V13.01,2013-06-12 01:20:00,
2013-06-11 21:25:00,78.8,74.3,29.98,ENE,75,0.0,0.0,86,0.00,,---,0.01,VWS V13.01,2013-06-12 01:25:00,
2013-06-11 21:30:00,78.8,74.3,29.98,ENE,75,0.0,0.0,86,0.00,,---,0.01,VWS V13.01,2013-06-12 01:30:00,
2013-06-11 21:35:00,78.7,74.2,29.98,ENE,75,0.0,0.0,86,0.00,,---,0.01,VWS V13.01,2013-06-12 01:35:00,
2013-06-11 21:40:00,78.7,74.2,29.98,ENE,75,0.0,0.0,86,0.00,,---,0.01,VWS V13.01,2013-06-12 01:40:00,
2013-06-11 21:45:00,78.6,74.1,29.99,ENE,75,0.0,0.0,86,0.00,,---,0.01,VWS V13.01,2013-06-12 01:45:00,
2013-06-11 21:50:00,78.6,74.4,29.99,ENE,75,0.0,0.0,87,0.00,,---,0.01,VWS V13.01,2013-06-12 01:50:00,
2013-06-11 21:56:00,78.7,74.5,29.99,ENE,75,0.0,0.0,87,0.00,,---,0.01,VWS V13.01,2013-06-12 01:56:00,
2013-06-11 22:01:00,78.9,74.7,30.00,East,87,0.0,0.0,87,0.00,,---,0.01,VWS V13.01,2013-06-12 02:01:00,
2013-06-11 22:06:00,79.1,74.9,30.00,East,87,0.0,0.0,87,0.00,,---,0.01,VWS V13.01,2013-06-12 02:06:00,
2013-06-11 22:11:00,79.3,75.1,30.00,East,87,0.0,0.0,87,0.00,,---,0.01,VWS V13.01,2013-06-12 02:11:00,
2013-06-11 22:16:00,79.4,75.2,29.99,East,87,0.0,0.0,87,0.00,,---,0.01,VWS V13.01,2013-06-12 02:16:00,
2013-06-11 22:21:00,79.5,74.9,29.99,East,87,0.0,0.0,86,0.00,,---,0.01,VWS V13.01,2013-06-12 02:21:00,
2013-06-11 22:26:00,79.5,74.9,30.00,East,87,0.0,0.0,86,0.00,,---,0.01,VWS V13.01,2013-06-12 02:26:00,
2013-06-11 22:31:00,79.5,74.9,30.00,East,87,0.0,0.0,86,0.00,,---,0.01,VWS V13.01,2013-06-12 02:31:00,
2013-06-11 22:36:00,79.6,75.1,30.00,East,87,0.0,0.0,86,0.00,,---,0.01,VWS V13.01,2013-06-12 02:36:00,
2013-06-11 22:41:00,79.6,75.1,30.00,East,87,0.0,0.0,86,0.00,,---,0.01,VWS V13.01,2013-06-12 02:41:00,
2013-06-11 22:46:00,79.5,74.9,30.00,East,87,0.0,0.0,86,0.00,,---,0.01,VWS V13.01,2013-06-12 02:46:00,
2013-06-11 22:51:00,79.4,74.8,30.00,East,87,0.0,0.0,86,0.00,,---,0.01,VWS V13.01,2013-06-12 02:51:00,
2013-06-11 22:57:00,79.4,74.8,30.00,East,87,0.0,0.0,86,0.00,,---,0.01,VWS V13.01,2013-06-12 02:57:00,
2013-06-11 23:02:00,79.4,74.8,30.00,East,87,0.0,0.0,86,0.00,,---,0.01,VWS V13.01,2013-06-12 03:02:00,
2013-06-11 23:07:00,79.2,74.7,30.00,East,87,0.0,0.0,86,0.00,,---,0.01,VWS V13.01,2013-06-12 03:07:00,
2013-06-11 23:12:00,79.2,74.7,30.00,East,87,0.0,0.0,86,0.00,,---,0.01,VWS V13.01,2013-06-12 03:12:00,
2013-06-11 23:17:00,79.3,75.1,30.00,East,87,0.0,0.0,87,0.00,,---,0.01,VWS V13.01,2013-06-12 03:17:00,
2013-06-11 23:22:00,79.2,75.0,30.00,East,87,0.0,0.0,87,0.00,,---,0.01,VWS V13.01,2013-06-12 03:22:00,
2013-06-11 23:27:00,79.1,74.9,30.00,East,87,0.0,0.0,87,0.00,,---,0.01,VWS V13.01,2013-06-12 03:27:00,
2013-06-11 23:32:00,78.9,74.7,30.00,East,87,0.0,0.0,87,0.00,,---,0.01,VWS V13.01,2013-06-12 03:32:00,
2013-06-11 23:37:00,78.9,74.7,30.01,East,87,0.0,0.0,87,0.00,,---,0.01,VWS V13.01,2013-06-12 03:37:00,
2013-06-11 23:42:00,79.0,74.8,30.01,East,87,0.0,0.0,87,0.00,,---,0.01,VWS V13.01,2013-06-12 03:42:00,
2013-06-11 23:47:00,78.9,74.4,30.01,East,87,0.0,0.0,86,0.00,,---,0.01,VWS V13.01,2013-06-12 03:47:00,
2013-06-11 23:52:00,78.9,74.4,30.01,East,87,0.0,0.0,86,0.00,,---,0.01,VWS V13.01,2013-06-12 03:52:00,
2013-06-11 23:57:00,78.8,74.3,30.01,East,87,0.0,0.0,86,0.00,,---,0.01,VWS V13.01,2013-06-12 03:57:00,